Terminal Aerodrome Forecast
Issued by NWS New Orleans/Baton Rouge, LA

Home | Current Version | Previous Version | Text Only | Print | Product List | Glossary On
Versions: 1 2 3 4 5 6 7 8 9 10 11 12 13 14 15 16 17 18 19 20 21 22 23 24 25 26
000
FTUS44 KLIX 212320
TAFNEW
TAF
KNEW 212320Z 2200/2224 15006KT P6SM FEW025 SCT250
     FM220500 20005KT P6SM FEW200
     FM221400 32004KT P6SM FEW020 SCT250
     FM221800 03004KT P6SM VCTS FEW030CB SCT200
     FM222100 09005KT P6SM VCTS FEW035CB SCT110=

USA.gov is the U.S. government's official web portal to all federal, state and local government web resources and services.